Saint-Simeon, Canada
Current Conditions -  °F | °C
As of 9:00 PM on Tuesday 21 Oct 2014 (Local Time) from CYBG Reporting Station
Scattered Clouds Scattered Clouds  
Wind Chill: 36°   Ceiling: Unl
Heat Index: 36°   Visibility: 15mi
Dew Point: 30°   Wind: 2mph
Humidity: 81%   Direction: 270°W
Pressure: 30.29"   Gusts: NA
Location:  47.85°N, 69.88°W
Report Text: CYBG 220100Z 27002KT 15SM SCT045 02/M01 A3029 RMK SC4 SLP266
Loading
Personal Weather Stations






























Interactive Weather Map
Tropical Storm Tracking
New forecast layout! Learn more

10-Day Weather Forecast

Advertisements
Track Severe Weather on mobile